sensor_id;sensor_type;location;lat;lon;timestamp;P1;durP1;ratioP1;P2;durP2;ratioP2
23046;SDS011;11691;51.462;6.902;2023-06-22T00:00:53;8.63;;;4.93;;
23046;SDS011;11691;51.462;6.902;2023-06-22T00:03:19;7.45;;;4.75;;
23046;SDS011;11691;51.462;6.902;2023-06-22T00:05:47;9.85;;;5.43;;
23046;SDS011;11691;51.462;6.902;2023-06-22T00:08:13;6.75;;;4.70;;
23046;SDS011;11691;51.462;6.902;2023-06-22T00:10:39;7.47;;;5.30;;
23046;SDS011;11691;51.462;6.902;2023-06-22T00:13:06;9.05;;;4.90;;
23046;SDS011;11691;51.462;6.902;2023-06-22T00:15:33;7.38;;;5.00;;
23046;SDS011;11691;51.462;6.902;2023-06-22T00:17:59;11.40;;;6.20;;
23046;SDS011;11691;51.462;6.902;2023-06-22T00:20:27;9.00;;;6.18;;
23046;SDS011;11691;51.462;6.902;2023-06-22T00:22:56;9.63;;;5.28;;
23046;SDS011;11691;51.462;6.902;2023-06-22T00:25:23;11.05;;;5.15;;
23046;SDS011;11691;51.462;6.902;2023-06-22T00:27:51;9.30;;;5.85;;
23046;SDS011;11691;51.462;6.902;2023-06-22T00:30:18;11.43;;;5.85;;
23046;SDS011;11691;51.462;6.902;2023-06-22T00:32:44;10.35;;;5.60;;
23046;SDS011;11691;51.462;6.902;2023-06-22T00:35:13;12.25;;;6.65;;
23046;SDS011;11691;51.462;6.902;2023-06-22T00:37:39;10.02;;;6.22;;
23046;SDS011;11691;51.462;6.902;2023-06-22T00:40:07;9.60;;;6.40;;
23046;SDS011;11691;51.462;6.902;2023-06-22T00:42:36;10.25;;;6.22;;
23046;SDS011;11691;51.462;6.902;2023-06-22T00:45:02;8.00;;;5.95;;
23046;SDS011;11691;51.462;6.902;2023-06-22T00:47:28;9.63;;;6.47;;
23046;SDS011;11691;51.462;6.902;2023-06-22T00:49:54;9.77;;;6.32;;
23046;SDS011;11691;51.462;6.902;2023-06-22T00:52:21;9.05;;;5.78;;
23046;SDS011;11691;51.462;6.902;2023-06-22T00:54:51;10.23;;;5.78;;
23046;SDS011;11691;51.462;6.902;2023-06-22T00:57:17;8.00;;;5.82;;
23046;SDS011;11691;51.462;6.902;2023-06-22T00:59:44;11.02;;;5.93;;
23046;SDS011;11691;51.462;6.902;2023-06-22T01:02:11;9.25;;;5.72;;
23046;SDS011;11691;51.462;6.902;2023-06-22T01:04:38;7.05;;;5.70;;
23046;SDS011;11691;51.462;6.902;2023-06-22T01:07:13;9.65;;;5.63;;
23046;SDS011;11691;51.462;6.902;2023-06-22T01:09:53;9.75;;;6.15;;
23046;SDS011;11691;51.462;6.902;2023-06-22T01:12:23;11.00;;;5.90;;
23046;SDS011;11691;51.462;6.902;2023-06-22T01:14:53;11.98;;;6.30;;
23046;SDS011;11691;51.462;6.902;2023-06-22T01:17:20;10.70;;;5.50;;
23046;SDS011;11691;51.462;6.902;2023-06-22T01:19:48;9.75;;;6.13;;
23046;SDS011;11691;51.462;6.902;2023-06-22T01:22:20;8.13;;;5.43;;
23046;SDS011;11691;51.462;6.902;2023-06-22T01:28:03;9.90;;;5.22;;
23046;SDS011;11691;51.462;6.902;2023-06-22T01:30:31;9.70;;;5.40;;
23046;SDS011;11691;51.462;6.902;2023-06-22T01:32:59;10.27;;;6.88;;
23046;SDS011;11691;51.462;6.902;2023-06-22T01:35:26;8.80;;;6.65;;
23046;SDS011;11691;51.462;6.902;2023-06-22T01:37:52;8.35;;;6.22;;
23046;SDS011;11691;51.462;6.902;2023-06-22T01:40:18;9.15;;;6.18;;
23046;SDS011;11691;51.462;6.902;2023-06-22T01:42:45;9.65;;;6.68;;
23046;SDS011;11691;51.462;6.902;2023-06-22T01:45:12;9.27;;;6.90;;
23046;SDS011;11691;51.462;6.902;2023-06-22T01:47:38;11.60;;;6.70;;
23046;SDS011;11691;51.462;6.902;2023-06-22T01:50:05;8.38;;;6.15;;
23046;SDS011;11691;51.462;6.902;2023-06-22T01:52:31;8.25;;;6.20;;
23046;SDS011;11691;51.462;6.902;2023-06-22T01:54:59;8.40;;;6.07;;
23046;SDS011;11691;51.462;6.902;2023-06-22T01:57:25;9.77;;;6.28;;
23046;SDS011;11691;51.462;6.902;2023-06-22T01:59:58;7.75;;;5.35;;
23046;SDS011;11691;51.462;6.902;2023-06-22T02:02:27;8.07;;;7.03;;
23046;SDS011;11691;51.462;6.902;2023-06-22T02:05:11;8.65;;;5.95;;
23046;SDS011;11691;51.462;6.902;2023-06-22T02:07:41;8.45;;;6.20;;
23046;SDS011;11691;51.462;6.902;2023-06-22T02:10:11;8.38;;;6.20;;
23046;SDS011;11691;51.462;6.902;2023-06-22T02:12:38;8.43;;;6.30;;
23046;SDS011;11691;51.462;6.902;2023-06-22T02:15:05;6.95;;;6.00;;
23046;SDS011;11691;51.462;6.902;2023-06-22T02:17:32;10.40;;;6.30;;
23046;SDS011;11691;51.462;6.902;2023-06-22T02:19:58;10.60;;;6.70;;
23046;SDS011;11691;51.462;6.902;2023-06-22T02:22:24;10.88;;;6.40;;
23046;SDS011;11691;51.462;6.902;2023-06-22T02:24:50;10.18;;;6.47;;
23046;SDS011;11691;51.462;6.902;2023-06-22T02:27:16;9.95;;;6.43;;
23046;SDS011;11691;51.462;6.902;2023-06-22T02:29:42;12.40;;;6.57;;
23046;SDS011;11691;51.462;6.902;2023-06-22T02:32:08;12.50;;;7.10;;
23046;SDS011;11691;51.462;6.902;2023-06-22T02:34:35;10.90;;;6.70;;
23046;SDS011;11691;51.462;6.902;2023-06-22T02:37:01;11.18;;;7.00;;
23046;SDS011;11691;51.462;6.902;2023-06-22T02:39:27;10.35;;;6.60;;
23046;SDS011;11691;51.462;6.902;2023-06-22T02:41:53;8.32;;;6.32;;
23046;SDS011;11691;51.462;6.902;2023-06-22T02:44:20;9.68;;;6.85;;
23046;SDS011;11691;51.462;6.902;2023-06-22T02:46:46;8.70;;;6.75;;
23046;SDS011;11691;51.462;6.902;2023-06-22T02:49:13;11.40;;;7.10;;
23046;SDS011;11691;51.462;6.902;2023-06-22T02:51:44;10.23;;;7.35;;
23046;SDS011;11691;51.462;6.902;2023-06-22T02:54:10;10.43;;;6.80;;
23046;SDS011;11691;51.462;6.902;2023-06-22T02:56:36;9.88;;;6.97;;
23046;SDS011;11691;51.462;6.902;2023-06-22T02:59:02;9.85;;;6.90;;
23046;SDS011;11691;51.462;6.902;2023-06-22T03:01:29;12.40;;;7.47;;
23046;SDS011;11691;51.462;6.902;2023-06-22T03:03:58;10.40;;;7.78;;
23046;SDS011;11691;51.462;6.902;2023-06-22T03:06:24;9.55;;;7.93;;
23046;SDS011;11691;51.462;6.902;2023-06-22T03:08:54;10.07;;;7.45;;
23046;SDS011;11691;51.462;6.902;2023-06-22T03:11:20;9.85;;;8.43;;
23046;SDS011;11691;51.462;6.902;2023-06-22T03:13:45;13.13;;;9.00;;
23046;SDS011;11691;51.462;6.902;2023-06-22T03:16:12;12.15;;;9.23;;
23046;SDS011;11691;51.462;6.902;2023-06-22T03:18:38;15.55;;;9.60;;
23046;SDS011;11691;51.462;6.902;2023-06-22T03:21:03;14.13;;;9.75;;
23046;SDS011;11691;51.462;6.902;2023-06-22T03:23:30;12.85;;;9.60;;
23046;SDS011;11691;51.462;6.902;2023-06-22T03:25:56;13.93;;;8.90;;
23046;SDS011;11691;51.462;6.902;2023-06-22T03:28:22;14.27;;;10.15;;
23046;SDS011;11691;51.462;6.902;2023-06-22T03:30:48;12.90;;;9.60;;
23046;SDS011;11691;51.462;6.902;2023-06-22T03:33:14;13.07;;;9.40;;
23046;SDS011;11691;51.462;6.902;2023-06-22T03:35:40;13.68;;;8.68;;
23046;SDS011;11691;51.462;6.902;2023-06-22T03:38:07;13.57;;;9.25;;
23046;SDS011;11691;51.462;6.902;2023-06-22T03:40:33;15.45;;;9.23;;
23046;SDS011;11691;51.462;6.902;2023-06-22T03:42:59;12.80;;;9.50;;
23046;SDS011;11691;51.462;6.902;2023-06-22T03:45:25;16.00;;;10.00;;
23046;SDS011;11691;51.462;6.902;2023-06-22T03:47:51;13.75;;;11.07;;
23046;SDS011;11691;51.462;6.902;2023-06-22T03:50:17;13.60;;;11.02;;
23046;SDS011;11691;51.462;6.902;2023-06-22T03:52:45;14.05;;;11.30;;
23046;SDS011;11691;51.462;6.902;2023-06-22T03:55:11;12.82;;;9.57;;
23046;SDS011;11691;51.462;6.902;2023-06-22T03:57:37;13.80;;;10.98;;
23046;SDS011;11691;51.462;6.902;2023-06-22T04:00:02;12.57;;;11.05;;
23046;SDS011;11691;51.462;6.902;2023-06-22T04:02:32;15.18;;;11.93;;
23046;SDS011;11691;51.462;6.902;2023-06-22T04:04:58;15.38;;;11.65;;
23046;SDS011;11691;51.462;6.902;2023-06-22T04:07:24;13.23;;;10.82;;
23046;SDS011;11691;51.462;6.902;2023-06-22T04:09:50;13.63;;;11.18;;
23046;SDS011;11691;51.462;6.902;2023-06-22T04:12:16;16.00;;;11.40;;
23046;SDS011;11691;51.462;6.902;2023-06-22T04:14:42;12.60;;;10.40;;
23046;SDS011;11691;51.462;6.902;2023-06-22T04:17:08;12.65;;;10.32;;
23046;SDS011;11691;51.462;6.902;2023-06-22T04:19:34;13.63;;;10.15;;
23046;SDS011;11691;51.462;6.902;2023-06-22T04:22:00;17.30;;;11.43;;
23046;SDS011;11691;51.462;6.902;2023-06-22T04:24:26;17.75;;;10.70;;
23046;SDS011;11691;51.462;6.902;2023-06-22T04:26:52;17.60;;;12.05;;
23046;SDS011;11691;51.462;6.902;2023-06-22T04:29:19;13.38;;;10.82;;
23046;SDS011;11691;51.462;6.902;2023-06-22T04:31:46;12.90;;;11.25;;
23046;SDS011;11691;51.462;6.902;2023-06-22T04:34:15;15.65;;;11.15;;
23046;SDS011;11691;51.462;6.902;2023-06-22T04:36:41;14.40;;;11.00;;
23046;SDS011;11691;51.462;6.902;2023-06-22T04:39:09;16.00;;;11.27;;
23046;SDS011;11691;51.462;6.902;2023-06-22T04:41:36;13.45;;;10.95;;
23046;SDS011;11691;51.462;6.902;2023-06-22T04:46:35;17.40;;;12.10;;
23046;SDS011;11691;51.462;6.902;2023-06-22T04:49:05;13.18;;;11.15;;
23046;SDS011;11691;51.462;6.902;2023-06-22T04:51:34;12.52;;;11.23;;
23046;SDS011;11691;51.462;6.902;2023-06-22T04:54:07;15.68;;;12.68;;
23046;SDS011;11691;51.462;6.902;2023-06-22T04:56:33;17.70;;;11.98;;
23046;SDS011;11691;51.462;6.902;2023-06-22T04:59:00;16.05;;;13.48;;
23046;SDS011;11691;51.462;6.902;2023-06-22T05:01:26;17.60;;;12.88;;
23046;SDS011;11691;51.462;6.902;2023-06-22T05:03:52;15.73;;;12.38;;
23046;SDS011;11691;51.462;6.902;2023-06-22T05:06:21;16.88;;;12.30;;
23046;SDS011;11691;51.462;6.902;2023-06-22T05:08:50;16.60;;;11.77;;
23046;SDS011;11691;51.462;6.902;2023-06-22T05:11:16;13.63;;;12.20;;
23046;SDS011;11691;51.462;6.902;2023-06-22T05:13:42;16.98;;;12.85;;
23046;SDS011;11691;51.462;6.902;2023-06-22T05:16:08;15.10;;;12.55;;
23046;SDS011;11691;51.462;6.902;2023-06-22T05:18:34;15.80;;;11.82;;
23046;SDS011;11691;51.462;6.902;2023-06-22T05:21:00;14.95;;;11.27;;
23046;SDS011;11691;51.462;6.902;2023-06-22T05:23:26;16.90;;;12.00;;
23046;SDS011;11691;51.462;6.902;2023-06-22T05:25:52;15.70;;;12.23;;
23046;SDS011;11691;51.462;6.902;2023-06-22T05:28:17;16.77;;;12.68;;
23046;SDS011;11691;51.462;6.902;2023-06-22T05:30:47;16.75;;;12.02;;
23046;SDS011;11691;51.462;6.902;2023-06-22T05:33:13;15.95;;;11.00;;
23046;SDS011;11691;51.462;6.902;2023-06-22T05:35:39;16.65;;;12.75;;
23046;SDS011;11691;51.462;6.902;2023-06-22T05:38:06;15.05;;;12.18;;
23046;SDS011;11691;51.462;6.902;2023-06-22T05:40:32;20.63;;;11.95;;
23046;SDS011;11691;51.462;6.902;2023-06-22T05:42:58;15.70;;;11.52;;
23046;SDS011;11691;51.462;6.902;2023-06-22T05:45:26;16.52;;;12.65;;
23046;SDS011;11691;51.462;6.902;2023-06-22T05:47:52;15.93;;;12.30;;
23046;SDS011;11691;51.462;6.902;2023-06-22T05:50:18;19.30;;;12.85;;
23046;SDS011;11691;51.462;6.902;2023-06-22T05:52:44;16.60;;;13.95;;
23046;SDS011;11691;51.462;6.902;2023-06-22T05:55:10;16.00;;;13.27;;
23046;SDS011;11691;51.462;6.902;2023-06-22T05:57:36;19.27;;;14.25;;
23046;SDS011;11691;51.462;6.902;2023-06-22T06:00:02;19.98;;;15.18;;
23046;SDS011;11691;51.462;6.902;2023-06-22T06:02:33;16.35;;;14.60;;
23046;SDS011;11691;51.462;6.902;2023-06-22T06:04:59;15.85;;;14.02;;
23046;SDS011;11691;51.462;6.902;2023-06-22T06:07:28;17.77;;;14.07;;
23046;SDS011;11691;51.462;6.902;2023-06-22T06:09:54;18.55;;;15.27;;
23046;SDS011;11691;51.462;6.902;2023-06-22T06:12:20;20.77;;;14.85;;
23046;SDS011;11691;51.462;6.902;2023-06-22T06:14:46;19.10;;;15.45;;
23046;SDS011;11691;51.462;6.902;2023-06-22T06:17:12;17.73;;;15.25;;
23046;SDS011;11691;51.462;6.902;2023-06-22T06:19:38;18.10;;;15.75;;
23046;SDS011;11691;51.462;6.902;2023-06-22T06:22:05;20.45;;;16.17;;
23046;SDS011;11691;51.462;6.902;2023-06-22T06:24:30;19.98;;;15.95;;
23046;SDS011;11691;51.462;6.902;2023-06-22T06:26:56;23.60;;;16.85;;
23046;SDS011;11691;51.462;6.902;2023-06-22T06:29:22;24.75;;;19.17;;
23046;SDS011;11691;51.462;6.902;2023-06-22T06:31:48;29.48;;;17.50;;
23046;SDS011;11691;51.462;6.902;2023-06-22T06:34:14;21.70;;;17.13;;
23046;SDS011;11691;51.462;6.902;2023-06-22T06:36:40;24.27;;;18.08;;
23046;SDS011;11691;51.462;6.902;2023-06-22T06:39:07;27.20;;;19.40;;
23046;SDS011;11691;51.462;6.902;2023-06-22T06:41:33;26.48;;;19.75;;
23046;SDS011;11691;51.462;6.902;2023-06-22T06:43:59;22.65;;;18.92;;
23046;SDS011;11691;51.462;6.902;2023-06-22T06:46:25;27.30;;;19.05;;
23046;SDS011;11691;51.462;6.902;2023-06-22T06:48:51;21.08;;;18.48;;
23046;SDS011;11691;51.462;6.902;2023-06-22T06:51:17;18.45;;;15.82;;
23046;SDS011;11691;51.462;6.902;2023-06-22T06:53:43;22.50;;;18.63;;
23046;SDS011;11691;51.462;6.902;2023-06-22T06:56:09;25.10;;;18.85;;
23046;SDS011;11691;51.462;6.902;2023-06-22T06:58:36;21.77;;;17.52;;
23046;SDS011;11691;51.462;6.902;2023-06-22T07:01:02;19.23;;;15.57;;
23046;SDS011;11691;51.462;6.902;2023-06-22T07:03:28;21.90;;;16.00;;
23046;SDS011;11691;51.462;6.902;2023-06-22T07:05:54;22.35;;;17.30;;
23046;SDS011;11691;51.462;6.902;2023-06-22T07:08:20;22.27;;;16.88;;
23046;SDS011;11691;51.462;6.902;2023-06-22T07:10:47;20.42;;;17.35;;
23046;SDS011;11691;51.462;6.902;2023-06-22T07:13:13;19.08;;;15.98;;
23046;SDS011;11691;51.462;6.902;2023-06-22T07:15:39;22.65;;;15.55;;
23046;SDS011;11691;51.462;6.902;2023-06-22T07:18:05;18.75;;;16.33;;
23046;SDS011;11691;51.462;6.902;2023-06-22T07:20:31;23.10;;;16.65;;
23046;SDS011;11691;51.462;6.902;2023-06-22T07:22:58;22.02;;;15.93;;
23046;SDS011;11691;51.462;6.902;2023-06-22T07:25:24;21.10;;;15.88;;
23046;SDS011;11691;51.462;6.902;2023-06-22T07:28:03;20.55;;;15.73;;
23046;SDS011;11691;51.462;6.902;2023-06-22T07:30:30;27.25;;;18.20;;
23046;SDS011;11691;51.462;6.902;2023-06-22T07:32:56;23.25;;;17.13;;
23046;SDS011;11691;51.462;6.902;2023-06-22T07:35:23;26.67;;;18.25;;
23046;SDS011;11691;51.462;6.902;2023-06-22T07:37:49;29.45;;;18.70;;
23046;SDS011;11691;51.462;6.902;2023-06-22T07:40:15;23.45;;;18.33;;
23046;SDS011;11691;51.462;6.902;2023-06-22T07:42:41;23.83;;;17.17;;
23046;SDS011;11691;51.462;6.902;2023-06-22T07:45:07;23.88;;;19.90;;
23046;SDS011;11691;51.462;6.902;2023-06-22T07:47:34;24.80;;;18.08;;
23046;SDS011;11691;51.462;6.902;2023-06-22T07:50:00;25.52;;;18.52;;
23046;SDS011;11691;51.462;6.902;2023-06-22T07:52:27;27.20;;;18.80;;
23046;SDS011;11691;51.462;6.902;2023-06-22T07:54:53;25.05;;;19.02;;
23046;SDS011;11691;51.462;6.902;2023-06-22T07:57:19;22.95;;;19.33;;
23046;SDS011;11691;51.462;6.902;2023-06-22T07:59:45;27.45;;;19.02;;
23046;SDS011;11691;51.462;6.902;2023-06-22T08:02:12;23.98;;;18.90;;
23046;SDS011;11691;51.462;6.902;2023-06-22T08:04:38;24.80;;;19.13;;
23046;SDS011;11691;51.462;6.902;2023-06-22T08:07:04;30.65;;;18.67;;
23046;SDS011;11691;51.462;6.902;2023-06-22T08:09:30;25.70;;;19.92;;
23046;SDS011;11691;51.462;6.902;2023-06-22T08:11:57;24.83;;;18.35;;
23046;SDS011;11691;51.462;6.902;2023-06-22T08:14:24;22.48;;;17.80;;
23046;SDS011;11691;51.462;6.902;2023-06-22T08:16:51;19.35;;;17.25;;
23046;SDS011;11691;51.462;6.902;2023-06-22T08:19:16;19.67;;;16.50;;
23046;SDS011;11691;51.462;6.902;2023-06-22T08:21:43;23.15;;;18.05;;
23046;SDS011;11691;51.462;6.902;2023-06-22T08:24:09;19.85;;;17.05;;
23046;SDS011;11691;51.462;6.902;2023-06-22T08:26:35;22.42;;;18.10;;
23046;SDS011;11691;51.462;6.902;2023-06-22T08:29:04;19.65;;;16.67;;
23046;SDS011;11691;51.462;6.902;2023-06-22T08:31:31;20.73;;;16.80;;
23046;SDS011;11691;51.462;6.902;2023-06-22T08:34:00;20.38;;;17.02;;
23046;SDS011;11691;51.462;6.902;2023-06-22T08:36:25;21.95;;;17.13;;
23046;SDS011;11691;51.462;6.902;2023-06-22T08:38:55;22.70;;;17.13;;
23046;SDS011;11691;51.462;6.902;2023-06-22T08:41:22;21.98;;;17.58;;
23046;SDS011;11691;51.462;6.902;2023-06-22T08:43:49;24.35;;;18.33;;
23046;SDS011;11691;51.462;6.902;2023-06-22T08:46:15;22.13;;;16.58;;
23046;SDS011;11691;51.462;6.902;2023-06-22T08:48:45;22.98;;;16.23;;
23046;SDS011;11691;51.462;6.902;2023-06-22T08:51:11;22.60;;;18.42;;
23046;SDS011;11691;51.462;6.902;2023-06-22T08:53:37;20.58;;;17.55;;
23046;SDS011;11691;51.462;6.902;2023-06-22T08:56:03;24.27;;;17.00;;
23046;SDS011;11691;51.462;6.902;2023-06-22T08:58:29;24.15;;;18.65;;
23046;SDS011;11691;51.462;6.902;2023-06-22T09:00:55;20.80;;;16.55;;
23046;SDS011;11691;51.462;6.902;2023-06-22T09:03:21;19.75;;;17.45;;
23046;SDS011;11691;51.462;6.902;2023-06-22T09:05:52;19.70;;;17.45;;
23046;SDS011;11691;51.462;6.902;2023-06-22T09:08:17;22.42;;;17.73;;
23046;SDS011;11691;51.462;6.902;2023-06-22T09:10:43;26.52;;;17.60;;
23046;SDS011;11691;51.462;6.902;2023-06-22T09:13:09;21.15;;;16.58;;
23046;SDS011;11691;51.462;6.902;2023-06-22T09:15:36;28.27;;;17.70;;
23046;SDS011;11691;51.462;6.902;2023-06-22T09:18:02;18.83;;;15.93;;
23046;SDS011;11691;51.462;6.902;2023-06-22T09:20:28;22.73;;;16.30;;
23046;SDS011;11691;51.462;6.902;2023-06-22T09:22:54;22.20;;;17.05;;
23046;SDS011;11691;51.462;6.902;2023-06-22T09:25:20;16.85;;;14.77;;
23046;SDS011;11691;51.462;6.902;2023-06-22T09:27:46;22.70;;;16.92;;
23046;SDS011;11691;51.462;6.902;2023-06-22T09:30:12;19.17;;;16.05;;
23046;SDS011;11691;51.462;6.902;2023-06-22T09:32:38;20.67;;;15.20;;
23046;SDS011;11691;51.462;6.902;2023-06-22T09:35:05;16.58;;;14.63;;
23046;SDS011;11691;51.462;6.902;2023-06-22T09:37:31;21.70;;;16.00;;
23046;SDS011;11691;51.462;6.902;2023-06-22T09:39:57;21.23;;;15.68;;
23046;SDS011;11691;51.462;6.902;2023-06-22T09:42:22;18.77;;;14.45;;
23046;SDS011;11691;51.462;6.902;2023-06-22T09:44:49;19.35;;;15.48;;
23046;SDS011;11691;51.462;6.902;2023-06-22T09:47:14;18.30;;;15.38;;
23046;SDS011;11691;51.462;6.902;2023-06-22T09:49:40;16.85;;;15.05;;
23046;SDS011;11691;51.462;6.902;2023-06-22T09:52:06;16.95;;;13.80;;
23046;SDS011;11691;51.462;6.902;2023-06-22T09:54:32;21.63;;;16.02;;
23046;SDS011;11691;51.462;6.902;2023-06-22T09:56:58;18.85;;;14.55;;
23046;SDS011;11691;51.462;6.902;2023-06-22T09:59:24;18.45;;;14.63;;
23046;SDS011;11691;51.462;6.902;2023-06-22T10:01:50;21.17;;;14.43;;
23046;SDS011;11691;51.462;6.902;2023-06-22T10:04:16;16.50;;;14.75;;
23046;SDS011;11691;51.462;6.902;2023-06-22T10:06:42;21.27;;;14.98;;
23046;SDS011;11691;51.462;6.902;2023-06-22T10:09:08;14.10;;;12.52;;
23046;SDS011;11691;51.462;6.902;2023-06-22T10:11:34;18.90;;;14.23;;
23046;SDS011;11691;51.462;6.902;2023-06-22T10:14:02;18.05;;;13.45;;
23046;SDS011;11691;51.462;6.902;2023-06-22T10:16:32;15.73;;;12.77;;
23046;SDS011;11691;51.462;6.902;2023-06-22T10:18:58;15.98;;;12.20;;
23046;SDS011;11691;51.462;6.902;2023-06-22T10:21:24;16.20;;;12.77;;
23046;SDS011;11691;51.462;6.902;2023-06-22T10:23:52;19.90;;;13.30;;
23046;SDS011;11691;51.462;6.902;2023-06-22T10:26:18;17.63;;;12.38;;
23046;SDS011;11691;51.462;6.902;2023-06-22T10:28:44;13.38;;;11.65;;
23046;SDS011;11691;51.462;6.902;2023-06-22T10:31:10;14.60;;;11.98;;
23046;SDS011;11691;51.462;6.902;2023-06-22T10:33:35;14.65;;;11.88;;
23046;SDS011;11691;51.462;6.902;2023-06-22T10:36:01;15.23;;;11.52;;
23046;SDS011;11691;51.462;6.902;2023-06-22T10:38:27;16.30;;;13.02;;
23046;SDS011;11691;51.462;6.902;2023-06-22T10:40:53;15.93;;;12.77;;
23046;SDS011;11691;51.462;6.902;2023-06-22T10:43:19;14.13;;;10.55;;
23046;SDS011;11691;51.462;6.902;2023-06-22T10:45:45;13.75;;;11.38;;
23046;SDS011;11691;51.462;6.902;2023-06-22T10:48:11;16.50;;;12.13;;
23046;SDS011;11691;51.462;6.902;2023-06-22T10:50:37;14.93;;;11.85;;
23046;SDS011;11691;51.462;6.902;2023-06-22T10:53:03;15.68;;;11.20;;
23046;SDS011;11691;51.462;6.902;2023-06-22T10:55:29;10.98;;;9.80;;
23046;SDS011;11691;51.462;6.902;2023-06-22T10:57:55;12.98;;;10.02;;
23046;SDS011;11691;51.462;6.902;2023-06-22T11:00:21;12.50;;;10.60;;
23046;SDS011;11691;51.462;6.902;2023-06-22T11:02:47;11.88;;;9.90;;
23046;SDS011;11691;51.462;6.902;2023-06-22T11:05:13;10.73;;;9.35;;
23046;SDS011;11691;51.462;6.902;2023-06-22T11:07:42;11.38;;;10.27;;
23046;SDS011;11691;51.462;6.902;2023-06-22T11:10:08;12.30;;;10.65;;
23046;SDS011;11691;51.462;6.902;2023-06-22T11:12:34;15.18;;;10.30;;
23046;SDS011;11691;51.462;6.902;2023-06-22T11:15:01;12.15;;;10.00;;
23046;SDS011;11691;51.462;6.902;2023-06-22T11:17:26;14.45;;;11.93;;
23046;SDS011;11691;51.462;6.902;2023-06-22T11:19:52;12.27;;;10.98;;
23046;SDS011;11691;51.462;6.902;2023-06-22T11:22:18;12.20;;;10.80;;
23046;SDS011;11691;51.462;6.902;2023-06-22T11:24:44;12.82;;;11.35;;
23046;SDS011;11691;51.462;6.902;2023-06-22T11:27:10;14.25;;;11.93;;
23046;SDS011;11691;51.462;6.902;2023-06-22T11:29:37;20.65;;;13.60;;
23046;SDS011;11691;51.462;6.902;2023-06-22T11:32:05;16.35;;;13.80;;
23046;SDS011;11691;51.462;6.902;2023-06-22T11:34:32;15.55;;;13.85;;
23046;SDS011;11691;51.462;6.902;2023-06-22T11:36:57;16.10;;;12.65;;
23046;SDS011;11691;51.462;6.902;2023-06-22T11:39:23;19.15;;;14.25;;
23046;SDS011;11691;51.462;6.902;2023-06-22T11:41:49;21.38;;;15.07;;
23046;SDS011;11691;51.462;6.902;2023-06-22T11:44:15;17.75;;;14.52;;
23046;SDS011;11691;51.462;6.902;2023-06-22T11:46:41;23.40;;;16.55;;
23046;SDS011;11691;51.462;6.902;2023-06-22T11:49:07;22.30;;;17.52;;
23046;SDS011;11691;51.462;6.902;2023-06-22T11:51:34;27.02;;;19.35;;
23046;SDS011;11691;51.462;6.902;2023-06-22T11:54:00;20.17;;;17.83;;
23046;SDS011;11691;51.462;6.902;2023-06-22T11:56:25;22.33;;;16.98;;
23046;SDS011;11691;51.462;6.902;2023-06-22T11:58:52;24.67;;;19.13;;
23046;SDS011;11691;51.462;6.902;2023-06-22T12:01:19;23.63;;;19.17;;
23046;SDS011;11691;51.462;6.902;2023-06-22T12:03:46;22.98;;;19.23;;
23046;SDS011;11691;51.462;6.902;2023-06-22T12:06:13;25.10;;;21.27;;
23046;SDS011;11691;51.462;6.902;2023-06-22T12:08:39;26.10;;;21.45;;
23046;SDS011;11691;51.462;6.902;2023-06-22T12:11:05;27.48;;;23.70;;
23046;SDS011;11691;51.462;6.902;2023-06-22T12:13:31;26.75;;;22.35;;
23046;SDS011;11691;51.462;6.902;2023-06-22T12:15:57;28.75;;;23.88;;
23046;SDS011;11691;51.462;6.902;2023-06-22T12:18:22;29.48;;;23.63;;
23046;SDS011;11691;51.462;6.902;2023-06-22T12:20:49;32.33;;;24.75;;
23046;SDS011;11691;51.462;6.902;2023-06-22T12:23:15;30.60;;;26.05;;
23046;SDS011;11691;51.462;6.902;2023-06-22T12:25:41;31.10;;;26.90;;
23046;SDS011;11691;51.462;6.902;2023-06-22T12:28:07;31.23;;;24.88;;
23046;SDS011;11691;51.462;6.902;2023-06-22T12:30:33;32.83;;;26.08;;
23046;SDS011;11691;51.462;6.902;2023-06-22T12:32:59;33.50;;;26.73;;
23046;SDS011;11691;51.462;6.902;2023-06-22T12:35:25;30.60;;;26.75;;
23046;SDS011;11691;51.462;6.902;2023-06-22T12:37:51;31.42;;;28.00;;
23046;SDS011;11691;51.462;6.902;2023-06-22T12:40:17;33.58;;;27.27;;
23046;SDS011;11691;51.462;6.902;2023-06-22T12:42:44;34.08;;;26.83;;
23046;SDS011;11691;51.462;6.902;2023-06-22T12:45:10;32.05;;;25.05;;
23046;SDS011;11691;51.462;6.902;2023-06-22T12:47:36;31.58;;;25.95;;
23046;SDS011;11691;51.462;6.902;2023-06-22T12:50:02;34.50;;;28.33;;
23046;SDS011;11691;51.462;6.902;2023-06-22T12:52:29;31.40;;;26.38;;
23046;SDS011;11691;51.462;6.902;2023-06-22T12:54:57;30.40;;;25.92;;
23046;SDS011;11691;51.462;6.902;2023-06-22T12:57:23;31.38;;;27.30;;
23046;SDS011;11691;51.462;6.902;2023-06-22T12:59:50;36.97;;;27.95;;
23046;SDS011;11691;51.462;6.902;2023-06-22T13:02:16;30.25;;;26.70;;
23046;SDS011;11691;51.462;6.902;2023-06-22T13:04:42;36.58;;;28.67;;
23046;SDS011;11691;51.462;6.902;2023-06-22T13:07:08;34.17;;;26.80;;
23046;SDS011;11691;51.462;6.902;2023-06-22T13:09:35;32.08;;;26.65;;
23046;SDS011;11691;51.462;6.902;2023-06-22T13:12:01;37.97;;;30.48;;
23046;SDS011;11691;51.462;6.902;2023-06-22T13:14:27;34.90;;;29.38;;
23046;SDS011;11691;51.462;6.902;2023-06-22T13:16:53;33.40;;;29.38;;
23046;SDS011;11691;51.462;6.902;2023-06-22T13:19:19;33.20;;;28.80;;
23046;SDS011;11691;51.462;6.902;2023-06-22T13:21:45;36.20;;;29.42;;
23046;SDS011;11691;51.462;6.902;2023-06-22T13:24:11;33.25;;;28.80;;
23046;SDS011;11691;51.462;6.902;2023-06-22T13:26:37;36.30;;;30.20;;
23046;SDS011;11691;51.462;6.902;2023-06-22T13:29:03;33.50;;;29.00;;
23046;SDS011;11691;51.462;6.902;2023-06-22T13:31:29;35.63;;;29.05;;
23046;SDS011;11691;51.462;6.902;2023-06-22T13:33:55;36.00;;;29.00;;
23046;SDS011;11691;51.462;6.902;2023-06-22T13:36:21;34.28;;;27.23;;
23046;SDS011;11691;51.462;6.902;2023-06-22T13:38:48;32.10;;;27.73;;
23046;SDS011;11691;51.462;6.902;2023-06-22T13:41:14;33.15;;;27.52;;
23046;SDS011;11691;51.462;6.902;2023-06-22T13:43:40;32.30;;;27.30;;
23046;SDS011;11691;51.462;6.902;2023-06-22T13:46:06;33.55;;;27.52;;
23046;SDS011;11691;51.462;6.902;2023-06-22T13:48:32;35.20;;;28.20;;
23046;SDS011;11691;51.462;6.902;2023-06-22T13:50:58;33.45;;;28.73;;
23046;SDS011;11691;51.462;6.902;2023-06-22T13:53:24;35.80;;;29.83;;
23046;SDS011;11691;51.462;6.902;2023-06-22T13:55:51;33.35;;;28.13;;
23046;SDS011;11691;51.462;6.902;2023-06-22T13:58:17;33.13;;;27.63;;
23046;SDS011;11691;51.462;6.902;2023-06-22T14:00:44;29.63;;;25.40;;
23046;SDS011;11691;51.462;6.902;2023-06-22T14:03:10;31.58;;;25.85;;
23046;SDS011;11691;51.462;6.902;2023-06-22T14:05:36;33.85;;;26.45;;
23046;SDS011;11691;51.462;6.902;2023-06-22T14:08:02;27.50;;;24.50;;
23046;SDS011;11691;51.462;6.902;2023-06-22T14:10:28;30.45;;;24.10;;
23046;SDS011;11691;51.462;6.902;2023-06-22T14:12:54;28.58;;;25.60;;
23046;SDS011;11691;51.462;6.902;2023-06-22T14:15:20;28.67;;;24.55;;
23046;SDS011;11691;51.462;6.902;2023-06-22T14:17:46;30.48;;;25.35;;
23046;SDS011;11691;51.462;6.902;2023-06-22T14:20:12;30.98;;;25.33;;
23046;SDS011;11691;51.462;6.902;2023-06-22T14:22:38;33.38;;;26.73;;
23046;SDS011;11691;51.462;6.902;2023-06-22T14:25:05;29.60;;;26.15;;
23046;SDS011;11691;51.462;6.902;2023-06-22T14:27:31;32.15;;;26.95;;